Map

Track Data

SID SEASON NUMBER BASIN SUBBASIN NAME ISO_TIME NATURE LAT LON WMO_WIND WMO_PRES WMO_AGENCY TRACK_TYPE DIST2LAND LANDFALL IFLAG USA_AGENCY USA_ATCF_ID USA_LAT USA_LON USA_RECORD USA_STATUS USA_WIND USA_PRES USA_SSHS USA_R34_NE USA_R34_SE USA_R34_SW USA_R34_NW USA_R50_NE USA_R50_SE USA_R50_SW USA_R50_NW USA_R64_NE USA_R64_SE USA_R64_SW USA_R64_NW USA_POCI USA_ROCI USA_RMW USA_EYE TOKYO_LAT TOKYO_LON TOKYO_GRADE TOKYO_WIND TOKYO_PRES TOKYO_R50_DIR TOKYO_R50_LONG TOKYO_R50_SHORT TOKYO_R30_DIR TOKYO_R30_LONG TOKYO_R30_SHORT TOKYO_LAND CMA_LAT CMA_LON CMA_CAT CMA_WIND CMA_PRES HKO_LAT HKO_LON HKO_CAT HKO_WIND HKO_PRES NEWDELHI_LAT NEWDELHI_LON NEWDELHI_GRADE NEWDELHI_WIND NEWDELHI_PRES NEWDELHI_CI NEWDELHI_DP NEWDELHI_POCI REUNION_LAT REUNION_LON REUNION_TYPE REUNION_WIND REUNION_PRES REUNION_TNUM REUNION_CI REUNION_RMW REUNION_R34_NE REUNION_R34_SE REUNION_R34_SW REUNION_R34_NW REUNION_R50_NE REUNION_R50_SE REUNION_R50_SW REUNION_R50_NW REUNION_R64_NE REUNION_R64_SE REUNION_R64_SW REUNION_R64_NW BOM_LAT BOM_LON BOM_TYPE BOM_WIND BOM_PRES BOM_TNUM BOM_CI BOM_RMW BOM_R34_NE BOM_R34_SE BOM_R34_SW BOM_R34_NW BOM_R50_NE BOM_R50_SE BOM_R50_SW BOM_R50_NW BOM_R64_NE BOM_R64_SE BOM_R64_SW BOM_R64_NW BOM_ROCI BOM_POCI BOM_EYE BOM_POS_METHOD BOM_PRES_METHOD NADI_LAT NADI_LON NADI_CAT NADI_WIND NADI_PRES WELLINGTON_LAT WELLINGTON_LON WELLINGTON_WIND WELLINGTON_PRES DS824_LAT DS824_LON DS824_STAGE DS824_WIND DS824_PRES TD9636_LAT TD9636_LON TD9636_STAGE TD9636_WIND TD9636_PRES TD9635_LAT TD9635_LON TD9635_WIND TD9635_PRES TD9635_ROCI NEUMANN_LAT NEUMANN_LON NEUMANN_CLASS NEUMANN_WIND NEUMANN_PRES MLC_LAT MLC_LON MLC_CLASS MLC_WIND MLC_PRES USA_GUST BOM_GUST BOM_GUST_PER REUNION_GUST REUNION_GUST_PER USA_SEAHGT USA_SEARAD_NE USA_SEARAD_SE USA_SEARAD_SW USA_SEARAD_NW STORM_SPEED STORM_DIR
1994086S08092 1994 25 SI WA ODILLE 1994-03-26 18:00:00 TS -7.80000 91.5000 main 1067 1066 O___________O_ jtwc_sh SH261994 -7.80000 91.5000 15 -1 -7.80000 91.5000 TC 15 3 137
1994086S08092 1994 25 SI WA ODILLE 1994-03-26 21:00:00 TS -7.90000 91.6000 main 1066 1065 P___________P_ SH261994 -7.90000 91.6000 15 -1 -7.90000 91.6000 TC 15 3 135
1994086S08092 1994 25 SI WA ODILLE 1994-03-27 00:00:00 TS -8.00000 91.7000 main 1065 1057 O___________O_ jtwc_sh SH261994 -8.00000 91.7000 15 -1 -8.00000 91.7000 TC 15 3 135
1994086S08092 1994 25 SI WA ODILLE 1994-03-27 03:00:00 TS -8.10000 91.8000 main 1064 1064 P___________P_ SH261994 -8.10000 91.8000 15 -1 -8.10000 91.8000 TC 15 3 135
1994086S08092 1994 25 SI WA ODILLE 1994-03-27 06:00:00 TS -8.20000 91.9000 main 1064 1056 O___________O_ jtwc_sh SH261994 -8.20000 91.9000 15 -1 -8.20000 91.9000 TC 15 3 134
1994086S08092 1994 25 SI WA ODILLE 1994-03-27 09:00:00 TS -8.29250 92.0000 main 1063 1055 P___________P_ SH261994 -8.29250 92.0000 15 -1 -8.29250 92.0000 TC 15 3 135
1994086S08092 1994 25 SI WA ODILLE 1994-03-27 12:00:00 TS -8.40000 92.1000 main 1063 1063 O___________O_ jtwc_sh SH261994 -8.40000 92.1000 15 -1 -8.40000 92.1000 TC 15 3 142
1994086S08092 1994 25 SI WA ODILLE 1994-03-27 15:00:00 TS -8.54250 92.2000 main 1063 1063 P___________P_ SH261994 -8.54250 92.2000 17 -1 -8.54250 92.2000 TC 17 4 147
1994086S08092 1994 25 SI WA ODILLE 1994-03-27 18:00:00 TS -8.70000 92.3000 main 1072 1072 O___________O_ jtwc_sh SH261994 -8.70000 92.3000 20 -1 -8.70000 92.3000 TC 20 4 146
1994086S08092 1994 25 SI WA ODILLE 1994-03-27 21:00:00 TS -8.85000 92.4075 main 1072 1073 P___________P_ SH261994 -8.85000 92.4075 20 -1 -8.85000 92.4075 TC 20 4 147
1994086S08092 1994 25 SI WA ODILLE 1994-03-28 00:00:00 TS -9.00000 92.5000 main 1082 1082 O___________O_ jtwc_sh SH261994 -9.00000 92.5000 20 -1 -9.00000 92.5000 TC 20 3 153
1994086S08092 1994 25 SI WA ODILLE 1994-03-28 03:00:00 TS -9.15000 92.5650 main 1083 1083 P___________P_ SH261994 -9.15000 92.5650 20 -1 -9.15000 92.5650 TC 20 3 163
1994086S08092 1994 25 SI WA ODILLE 1994-03-28 06:00:00 TS -9.30000 92.6000 main 1100 1100 O___________O_ jtwc_sh SH261994 -9.30000 92.6000 20 -1 -9.30000 92.6000 TC 20 3 174
1994086S08092 1994 25 SI WA ODILLE 1994-03-28 09:00:00 TS -9.45750 92.6075 main 1118 1118 P___________P_ SH261994 -9.45750 92.6075 20 -1 -9.45750 92.6075 TC 20 3 0
1994086S08092 1994 25 SI WA ODILLE 1994-03-28 12:00:00 TS -9.60000 92.6000 main 1126 1126 O___________O_ jtwc_sh SH261994 -9.60000 92.6000 20 -1 -9.60000 92.6000 TC 20 2 186
1994086S08092 1994 25 SI WA ODILLE 1994-03-28 15:00:00 TS -9.70000 92.6075 main 1135 1135 P___________P_ SH261994 -9.70000 92.6075 22 -1 -9.70000 92.6075 TC 22 2 172
1994086S08092 1994 25 SI WA ODILLE 1994-03-28 18:00:00 TS -9.80000 92.6000 main 1144 1144 O___________O_ jtwc_sh SH261994 -9.80000 92.6000 25 -1 -9.80000 92.6000 TC 25 3 189
1994086S08092 1994 25 SI WA ODILLE 1994-03-28 21:00:00 TS -9.95000 92.5650 main 1153 1153 P___________P_ SH261994 -9.95000 92.5650 25 -1 -9.95000 92.5650 TC 25 3 197
1994086S08092 1994 25 SI WA ODILLE 1994-03-29 00:00:00 TS -10.1000 92.5000 main 1177 1177 O___________O_ jtwc_sh SH261994 -10.1000 92.5000 25 -1 -10.1000 92.5000 TC 25 3 210
1994086S08092 1994 25 SI WA ODILLE 1994-03-29 03:00:00 TS -10.2075 92.4075 main 1193 1193 P___________P_ SH261994 -10.2075 92.4075 25 -1 -10.2075 92.4075 TC 25 3 225
1994086S08092 1994 25 SI WA ODILLE 1994-03-29 06:00:00 TS -10.3000 92.3000 main 1208 1208 O___________O_ jtwc_sh SH261994 -10.3000 92.3000 25 -1 -10.3000 92.3000 TC 25 3 226
1994086S08092 1994 25 SI WA ODILLE 1994-03-29 09:00:00 TS -10.4000 92.2075 main 1224 1224 P___________P_ SH261994 -10.4000 92.2075 25 -1 -10.4000 92.2075 TC 25 3 225
1994086S08092 1994 25 SI WA ODILLE 1994-03-29 12:00:00 TS -10.5000 92.1000 main 1239 1239 O___________O_ jtwc_sh SH261994 -10.5000 92.1000 25 -1 -10.5000 92.1000 TC 25 3 229
1994086S08092 1994 25 SI WA ODILLE 1994-03-29 15:00:00 TS -10.6075 91.9650 main 1255 1255 P___________P_ SH261994 -10.6075 91.9650 25 -1 -10.6075 91.9650 TC 25 4 235
1994086S08092 1994 25 SI WA ODILLE 1994-03-29 18:00:00 TS -10.7333 91.7667 main 1277 1277 O____O______O_ jtwc_sh SH261994 -10.7000 91.8000 25 -1 -11.0000 91.5000 2 20 1002 1.50000 1.50000 -10.7000 91.8000 TC 25 5 245
1994086S08092 1994 25 SI WA ODILLE 1994-03-29 21:00:00 TS -10.8080 91.5360 main 1307 1307 P____P______P_ SH261994 -10.7575 91.6075 27 -1 -11.0100 91.2500 2 22 1001 -10.7575 91.6075 TC 27 5 255
1994086S08092 1994 25 SI WA ODILLE 1994-03-30 00:00:00 TS -10.8545 91.2909 main 1329 1329 O____O______O_ jtwc_sh SH261994 -10.8000 91.4000 30 -1 -11.0000 91.0000 2 25 1000 2.00000 2.00000 -10.8000 91.4000 TC 30 5 260
1994086S08092 1994 25 SI WA ODILLE 1994-03-30 03:00:00 TS -10.8908 91.0550 main 1343 1343 P____P______P_ SH261994 -10.8575 91.2075 30 -1 -10.9575 90.7500 2 25 1000 -10.8575 91.2075 TC 30 5 264
1994086S08092 1994 25 SI WA ODILLE 1994-03-30 06:00:00 TS -10.9000 90.8333 main 1365 1365 O____O______O_ jtwc_sh SH261994 -10.9000 91.0000 30 -1 -10.9000 90.5000 2 25 1000 2.00000 2.00000 -10.9000 91.0000 TC 30 5 270
1994086S08092 1994 25 SI WA ODILLE 1994-03-30 09:00:00 TS -10.8908 90.5833 main 1379 1379 P____P______P_ SH261994 -10.9150 90.7575 32 -1 -10.8425 90.2350 2 26 998 -10.9150 90.7575 TC 32 5 274
1994086S08092 1994 25 SI WA ODILLE 1994-03-30 12:00:00 TS -10.8667 90.3333 28 997 reunion main 1402 1401 O____O______O_ jtwc_sh SH261994 -10.9000 90.5000 35 0 -10.8000 90.0000 2 28 997 2.50000 2.50000 -10.9000 90.5000 TC 35 5 277
1994086S08092 1994 25 SI WA ODILLE 1994-03-30 15:00:00 TS -10.8383 90.1167 main 1409 1409 P____P______P_ SH261994 -10.8575 90.2500 35 0 -10.7999 89.8500 2 29 996 -10.8575 90.2500 TC 35 4 279
1994086S08092 1994 25 SI MM ODILLE 1994-03-30 18:00:00 TS -10.8000 89.9000 30 995 reunion main 1424 1424 O____O______O_ jtwc_sh SH261994 -10.8000 90.0000 35 0 -10.8000 89.7000 2 30 995 2.50000 2.50000 -10.8000 90.0000 TC 35 5 280
1994086S08092 1994 25 SI MM ODILLE 1994-03-30 21:00:00 TS -10.7575 89.6650 main 1439 1439 P____P______P_ SH261994 -10.7500 89.7575 37 0 -10.7725 89.4800 2 32 993 -10.7500 89.7575 TC 37 5 282
1994086S08092 1994 25 SI MM ODILLE 1994-03-31 00:00:00 TS -10.7000 89.4000 35 992 reunion main 1455 1455 O____O______O_ jtwc_sh SH261994 -10.7000 89.5000 40 0 -10.7000 89.2000 3 35 992 3.00000 3.00000 -10.7000 89.5000 TC 40 6 284
1994086S08092 1994 25 SI MM ODILLE 1994-03-31 03:00:00 TS -10.6167 89.0808 main 1472 1472 P____P______P_ SH261994 -10.6500 89.2000 40 0 -10.5501 88.8424 3 35 992 -10.6500 89.2000 TC 40 6 285
1994086S08092 1994 25 SI MM ODILLE 1994-03-31 06:00:00 TS -10.5333 88.7667 35 992 reunion main 1489 1489 O____O______O_ jtwc_sh SH261994 -10.6000 88.9000 40 0 -10.4000 88.5000 3 35 992 3.00000 3.00000 -10.6000 88.9000 TC 40 6 284
1994086S08092 1994 25 SI MM ODILLE 1994-03-31 09:00:00 TS -10.4758 88.5234 main 1514 1514 P____P______P_ SH261994 -10.5500 88.6425 42 0 -10.3274 88.2850 3 35 992 -10.5500 88.6425 TC 42 5 282
1994086S08092 1994 25 SI MM ODILLE 1994-03-31 12:00:00 TS -10.4333 88.3000 35 992 reunion main 1524 1524 O____O______O_ jtwc_sh SH261994 -10.5000 88.4000 45 0 -10.3000 88.1000 3 35 992 3.00000 3.00000 -10.5000 88.4000 TC 45 5 280
1994086S08092 1994 25 SI MM ODILLE 1994-03-31 15:00:00 TS -10.3975 88.0550 main 1541 1541 P____P______P_ SH261994 -10.4500 88.1575 45 0 -10.2925 87.8500 3 35 992 -10.4500 88.1575 TC 45 5 278
1994086S08092 1994 25 SI MM ODILLE 1994-03-31 18:00:00 TS -10.3667 87.8000 35 992 reunion main 1567 1567 O____O______O_ jtwc_sh SH261994 -10.4000 87.9000 45 0 -10.3000 87.6000 3 35 992 2.50000 3.00000 -10.4000 87.9000 TC 45 5 278
1994086S08092 1994 25 SI MM ODILLE 1994-03-31 21:00:00 TS -10.3283 87.5308 main 1586 1586 P____P______P_ SH261994 -10.3425 87.6000 47 0 -10.3000 87.3925 3 35 992 -10.3425 87.6000 TC 47 5 277
1994086S08092 1994 25 SI MM ODILLE 1994-04-01 00:00:00 TS -10.3000 87.2667 35 992 reunion main 1604 1604 O____O______O_ jtwc_sh SH261994 -10.3000 87.3000 50 0 -10.3000 87.2000 3 35 992 2.50000 3.00000 -10.3000 87.3000 TC 50 5 275
1994086S08092 1994 25 SI MM ODILLE 1994-04-01 03:00:00 TS -10.2875 87.0283 main 1631 1631 P____P______P_ SH261994 -10.2850 87.0425 50 0 -10.2925 87.0000 3 35 992 -10.2850 87.0425 TC 50 5 270
1994086S08092 1994 25 SI MM ODILLE 1994-04-01 06:00:00 TS -10.3000 86.8000 35 992 reunion main 1648 1648 O____O______O_ jtwc_sh SH261994 -10.3000 86.8000 50 0 -10.3000 86.8000 3 35 992 3.00000 3.00000 -10.3000 86.8000 TC 50 5 264
1994086S08092 1994 25 SI MM ODILLE 1994-04-01 09:00:00 TS -10.3375 86.5717 main 1666 1666 P____P______P_ SH261994 -10.3350 86.5575 52 0 -10.3425 86.6000 3 35 992 -10.3350 86.5575 TC 52 5 258
1994086S08092 1994 25 SI MM ODILLE 1994-04-01 12:00:00 TS -10.4000 86.3333 35 992 reunion main 1700 1700 O____O______O_ jtwc_sh SH261994 -10.4000 86.3000 55 0 -10.4000 86.4000 3 35 992 3.00000 3.00000 -10.4000 86.3000 TC 55 5 254
1994086S08092 1994 25 SI MM ODILLE 1994-04-01 15:00:00 TS -10.4783 86.0717 main 1724 1724 P____P______P_ SH261994 -10.4925 86.0075 57 0 -10.4500 86.2000 3 37 990 -10.4925 86.0075 TC 57 6 252
1994086S08092 1994 25 SI MM ODILLE 1994-04-01 18:00:00 TS -10.5667 85.8000 40 988 reunion main 1758 1758 O____O______O_ jtwc_sh SH261994 -10.6000 85.7000 60 0 -10.5000 86.0000 3 40 988 3.50000 3.50000 -10.6000 85.7000 TC 60 5 252
1994086S08092 1994 25 SI MM ODILLE 1994-04-01 21:00:00 TS -10.6475 85.5408 main 1785 1785 P____P______P_ SH261994 -10.7000 85.4075 62 0 -10.5425 85.8075 3 42 986 -10.7000 85.4075 TC 62 6 252
1994086S08092 1994 25 SI MM ODILLE 1994-04-02 00:00:00 TS -10.7333 85.2667 45 984 reunion main 1810 1810 O____O______O_ jtwc_sh SH261994 -10.8000 85.1000 65 1 -10.6000 85.6000 3 45 984 3.50000 3.50000 -10.8000 85.1000 TC 65 6 252
1994086S08092 1994 25 SI MM ODILLE 1994-04-02 03:00:00 TS -10.8258 84.9650 main 1843 1843 P____P______P_ SH261994 -10.9000 84.7575 67 1 -10.6774 85.3799 3 47 981 -10.9000 84.7575 TC 67 7 252
1994086S08092 1994 25 SI MM ODILLE 1994-04-02 06:00:00 TS -10.9333 84.6333 50 978 reunion main 1886 1886 O____O______O_ jtwc_sh SH261994 -11.0000 84.4000 70 1 -10.8000 85.1000 3 50 978 4.00000 4.00000 -11.0000 84.4000 TC 70 7 251
1994086S08092 1994 25 SI MM ODILLE 1994-04-02 09:00:00 TS -11.0616 84.2766 main 1926 1926 P____P______P_ SH261994 -11.1000 84.0500 72 1 -10.9850 84.7300 3 52 976 -11.1000 84.0500 TC 72 8 250
1994086S08092 1994 25 SI MM ODILLE 1994-04-02 12:00:00 TS -11.2000 83.9000 55 974 reunion main 1950 1948 O____O______O_ jtwc_sh SH261994 -11.2000 83.7000 75 1 -11.2000 84.3000 3 55 974 4.00000 4.00000 -11.2000 83.7000 TC 75 8 250
1994086S08092 1994 25 SI MM ODILLE 1994-04-02 15:00:00 TS -11.3358 83.5167 main 1953 1953 P____P______P_ SH261994 -11.3000 83.3500 75 1 -11.4075 83.8500 3 57 972 -11.3000 83.3500 TC 75 8 250
1994086S08092 1994 25 SI MM ODILLE 1994-04-02 18:00:00 TS -11.4667 83.1333 60 970 reunion main 1969 1966 O____O______O_ jtwc_sh SH261994 -11.4000 83.0000 75 1 -11.6000 83.4000 3 60 970 4.50000 4.50000 -11.4000 83.0000 TC 75 8 251
1994086S08092 1994 25 SI MM ODILLE 1994-04-02 21:00:00 TS -11.5883 82.7542 main 1975 1973 P____P______P_ SH261994 -11.5000 82.6425 77 1 -11.7650 82.9775 3 61 968 -11.5000 82.6425 TC 77 8 252
1994086S08092 1994 25 SI MM ODILLE 1994-04-03 00:00:00 TS -11.7000 82.4000 62 966 reunion main 1982 1979 O____O______O_ jtwc_sh SH261994 -11.6000 82.3000 80 1 -11.9000 82.6000 3 62 966 4.50000 4.50000 -11.6000 82.3000 TC 80 7 252
1994086S08092 1994 25 SI MM ODILLE 1994-04-03 03:00:00 TS -11.7974 82.0874 main 1990 1988 P____P______P_ SH261994 -11.6924 81.9924 80 1 -12.0074 82.2774 3 61 968 -11.6924 81.9924 TC 80 6 251
1994086S08092 1994 25 SI MM ODILLE 1994-04-03 06:00:00 TS -11.9000 81.8000 60 970 reunion main 1998 1998 O____O______O_ jtwc_sh SH261994 -11.8000 81.7000 80 1 -12.1000 82.0000 3 60 970 4.00000 4.50000 -11.8000 81.7000 TC 80 6 247
1994086S08092 1994 25 SI MM ODILLE 1994-04-03 09:00:00 TS -12.0258 81.5241 main 2008 2008 P____P______P_ SH261994 -11.9424 81.4075 80 1 -12.1924 81.7574 3 60 970 -11.9424 81.4075 TC 80 6 244
1994086S08092 1994 25 SI MM ODILLE 1994-04-03 12:00:00 TS -12.1667 81.2333 60 970 reunion main 2029 2028 O____O______O_ jtwc_sh SH261994 -12.1000 81.1000 80 1 -12.3000 81.5000 3 60 970 4.00000 4.50000 -12.1000 81.1000 TC 80 7 244
1994086S08092 1994 25 SI MM ODILLE 1994-04-03 15:00:00 TS -12.3191 80.9008 main 2039 2039 P____P______P_ SH261994 -12.2575 80.7650 77 1 -12.4425 81.1725 3 57 972 -12.2575 80.7650 TC 77 7 246
1994086S08092 1994 25 SI MM ODILLE 1994-04-03 18:00:00 TS -12.4667 80.5333 55 974 reunion main 2061 2061 O____O______O_ jtwc_sh SH261994 -12.4000 80.4000 75 1 -12.6000 80.8000 3 55 974 3.50000 4.00000 -12.4000 80.4000 TC 75 8 250
1994086S08092 1994 25 SI MM ODILLE 1994-04-03 21:00:00 TS -12.5908 80.1508 main 2073 2073 P____P______P_ SH261994 -12.5074 80.0149 75 1 -12.7574 80.4225 3 52 976 -12.5074 80.0149 TC 75 8 253
1994086S08092 1994 25 SI MM ODILLE 1994-04-04 00:00:00 TS -12.7000 79.7333 50 978 reunion main 2086 2086 O____O______O_ jtwc_sh SH261994 -12.6000 79.6000 75 1 -12.9000 80.0000 3 50 978 3.50000 4.00000 -12.6000 79.6000 TC 75 9 255
1994086S08092 1994 25 SI MM ODILLE 1994-04-04 03:00:00 TS -12.8250 79.2793 main 2100 2100 P____P______P_ SH261994 -12.7225 79.1576 72 1 -13.0299 79.5226 3 47 981 -12.7225 79.1576 TC 72 9 258
1994086S08092 1994 25 SI MM ODILLE 1994-04-04 06:00:00 TS -12.9000 78.8000 45 984 reunion main 2115 2115 O____O______O_ jtwc_sh SH261994 -12.8000 78.7000 70 1 -13.1000 79.0000 3 45 984 3.00000 3.50000 -12.8000 78.7000 TC 70 9 267
1994086S08092 1994 25 SI MM ODILLE 1994-04-04 09:00:00 TS -12.8799 78.3191 main 2121 2113 P____P______P_ SH261994 -12.7799 78.2499 70 1 -13.0799 78.4574 3 42 986 -12.7799 78.2499 TC 70 9 276
1994086S08092 1994 25 SI MM ODILLE 1994-04-04 12:00:00 TS -12.8000 77.8333 40 988 reunion main 2117 2111 O____O______O_ jtwc_sh SH261994 -12.7000 77.8000 70 1 -13.0000 77.9000 3 40 988 3.00000 3.50000 -12.7000 77.8000 TC 70 10 279
1994086S08092 1994 25 SI MM ODILLE 1994-04-04 15:00:00 TS -12.7249 77.3476 main 2115 2110 P____P______P_ SH261994 -12.6224 77.3501 67 1 -12.9299 77.3426 3 37 990 -12.6224 77.3501 TC 67 10 282
1994086S08092 1994 25 SI MM ODILLE 1994-04-04 18:00:00 TS -12.6000 76.8667 35 992 reunion main 2112 2099 O____O______O_ jtwc_sh SH261994 -12.5000 76.9000 65 1 -12.8000 76.8000 3 35 992 3.00000 3.00000 -12.5000 76.9000 TC 65 10 289
1994086S08092 1994 25 SI MM ODILLE 1994-04-04 21:00:00 TS -12.4033 76.3900 main 2102 2088 P____P______P_ SH261994 -12.3149 76.4500 62 0 -12.5800 76.2700 3 35 992 -12.3149 76.4500 TC 62 10 295
1994086S08092 1994 25 SI MM ODILLE 1994-04-05 00:00:00 TS -12.1667 75.9333 35 992 reunion main 2093 2072 O____O______O_ jtwc_sh SH261994 -12.1000 76.0000 60 0 -12.3000 75.8000 3 35 992 2.50000 3.00000 -12.1000 76.0000 TC 60 10 298
1994086S08092 1994 25 SI MM ODILLE 1994-04-05 03:00:00 TS -11.9283 75.4942 main 2072 2060 P____P______P_ SH261994 -11.9000 75.5425 57 0 -11.9849 75.3975 3 35 992 -11.9000 75.5425 TC 57 9 300
1994086S08092 1994 25 SI MM ODILLE 1994-04-05 06:00:00 TS -11.7000 75.1000 35 992 reunion main 2063 2052 O____O______O_ jtwc_sh SH261994 -11.7000 75.1000 55 0 -11.7000 75.1000 3 35 992 2.50000 3.00000 -11.7000 75.1000 TC 55 8 300
1994086S08092 1994 25 SI MM ODILLE 1994-04-05 09:00:00 TS -11.5091 74.7659 main 2052 2042 P____P______P_ SH261994 -11.4999 74.6851 55 0 -11.5274 74.9277 3 32 993 -11.4999 74.6851 TC 55 7 301
1994086S08092 1994 25 SI MM ODILLE 1994-04-05 12:00:00 TS -11.3333 74.4667 30 995 reunion main 2042 2026 O____O______O_ jtwc_sh SH261994 -11.3000 74.3000 55 0 -11.4000 74.8000 2 30 995 2.50000 2.50000 -11.3000 74.3000 TC 55 7 301
1994086S08092 1994 25 SI MM ODILLE 1994-04-05 15:00:00 TS -11.1499 74.1667 main 2031 2010 P____P______P_ SH261994 -11.0999 73.9426 52 0 -11.2500 74.6150 2 30 995 -11.0999 73.9426 TC 52 7 302
1994086S08092 1994 25 SI MM ODILLE 1994-04-05 18:00:00 TS -10.9667 73.8667 30 995 reunion main 2010 1995 O____O______O_ jtwc_sh SH261994 -10.9000 73.6000 50 0 -11.1000 74.4000 2 30 995 2.00000 2.50000 -10.9000 73.6000 TC 50 7 302
1994086S08092 1994 25 SI MM ODILLE 1994-04-05 21:00:00 TS -10.7808 73.5575 main 1995 1974 P____P______P_ SH261994 -10.6924 73.2575 50 0 -10.9575 74.1575 2 29 996 -10.6924 73.2575 TC 50 7 301
1994086S08092 1994 25 SI MM ODILLE 1994-04-06 00:00:00 TS -10.6000 73.2333 28 997 reunion main 1971 1957 O____O______O_ jtwc_sh SH261994 -10.5000 72.9000 50 0 -10.8000 73.9000 2 28 997 2.00000 2.50000 -10.5000 72.9000 TC 50 8 299
1994086S08092 1994 25 SI MM ODILLE 1994-04-06 03:00:00 TS -10.4183 72.8883 main 1957 1937 P____P______P_ SH261994 -10.3275 72.5000 47 0 -10.5999 73.6650 2 26 998 -10.3275 72.5000 TC 47 8 296
1994086S08092 1994 25 SI MM ODILLE 1994-04-06 06:00:00 TS -10.2667 72.5333 25 1000 reunion main 1928 1908 O____O______O_ jtwc_sh SH261994 -10.2000 72.1000 45 0 -10.4000 73.4000 2 25 1000 2.00000 2.00000 -10.2000 72.1000 TC 45 7 290
1994086S08092 1994 25 SI MM ODILLE 1994-04-06 09:00:00 TS -10.1583 72.1808 main 1908 1889 P____P______P_ SH261994 -10.1200 71.7350 45 0 -10.2350 73.0725 2 25 1000 -10.1200 71.7350 TC 45 7 284
1994086S08092 1994 25 SI MM ODILLE 1994-04-06 12:00:00 TS -10.1000 71.8333 25 1000 reunion main 1881 1855 O____O______O_ jtwc_sh SH261994 -10.1000 71.4000 45 0 -10.1000 72.7000 2 25 1000 2.00000 2.00000 -10.1000 71.4000 TC 45 7 277
1994086S08092 1994 25 SI MM ODILLE 1994-04-06 15:00:00 TS -10.0774 71.5075 main 1855 1829 P____P______P_ SH261994 -10.1274 71.1000 45 0 -9.97742 72.3225 2 25 1000 -10.1274 71.1000 TC 45 7 270
1994086S08092 1994 25 SI MM ODILLE 1994-04-06 18:00:00 TS -10.1000 71.1667 25 1000 reunion main 1829 1796 O____O______O_ jtwc_sh SH261994 -10.2000 70.8000 45 0 -9.90000 71.9000 2 25 1000 1.50000 2.00000 -10.2000 70.8000 TC 45 7 264
1994086S08092 1994 25 SI MM ODILLE 1994-04-06 21:00:00 TS -10.1492 70.7717 main 1796 1755 P____P______P_ SH261994 -10.2850 70.4500 45 0 -9.87749 71.4150 2 25 1000 -10.2850 70.4500 TC 45 8 260
1994086S08092 1994 25 SI MM ODILLE 1994-04-07 00:00:00 TS -10.2333 70.3667 25 1000 reunion main 1755 1714 O____O______O_ jtwc_sh SH261994 -10.4000 70.1000 45 0 -9.90000 70.9000 2 25 1000 2.00000 2.00000 -10.4000 70.1000 TC 45 8 256
1994086S08092 1994 25 SI MM ODILLE 1994-04-07 03:00:00 TS -10.3350 69.9925 main 1714 1675 P____P______P_ SH261994 -10.5424 69.8000 45 0 -9.92002 70.3775 2 27 997 -10.5424 69.8000 TC 45 8 252
1994086S08092 1994 25 SI MM ODILLE 1994-04-07 06:00:00 TS -10.4667 69.6333 30 995 reunion main 1667 1635 O____O______O_ jtwc_sh SH261994 -10.7000 69.5000 45 0 -10.0000 69.9000 2 30 995 2.50000 2.50000 -10.7000 69.5000 TC 45 8 248
1994086S08092 1994 25 SI MM ODILLE 1994-04-07 09:00:00 TS -10.6158 69.2858 main 1635 1595 P____P______P_ SH261994 -10.8425 69.1574 45 0 -10.1623 69.5424 2 32 993 -10.8425 69.1574 TC 45 8 244
1994086S08092 1994 25 SI MM ODILLE 1994-04-07 12:00:00 TS -10.8000 68.9333 35 992 reunion main 1587 1548 O____O______O_ jtwc_sh SH261994 -11.0000 68.8000 45 0 -10.4000 69.2000 3 35 992 3.00000 3.00000 -11.0000 68.8000 TC 45 8 240
1994086S08092 1994 25 SI MM ODILLE 1994-04-07 15:00:00 TS -11.0208 68.5575 main 1548 1493 P____P______P_ SH261994 -11.1924 68.4575 45 0 -10.6775 68.7575 3 36 991 -11.1924 68.4575 TC 45 9 238
1994086S08092 1994 25 SI MM ODILLE 1994-04-07 18:00:00 TS -11.2667 68.1667 38 990 reunion main 1493 1446 O____O______O_ jtwc_sh SH261994 -11.4000 68.1000 45 0 -11.0000 68.3000 3 38 990 3.00000 3.00000 -11.4000 68.1000 TC 45 9 237
1994086S08092 1994 25 SI MM ODILLE 1994-04-07 21:00:00 TS -11.5116 67.7741 main 1446 1391 P____P______P_ SH261994 -11.6000 67.7075 45 0 -11.3349 67.9073 3 41 987 -11.6000 67.7075 TC 45 9 237
1994086S08092 1994 25 SI MM ODILLE 1994-04-08 00:00:00 TS -11.7667 67.3667 45 984 reunion main 1391 1344 O____O______O_ jtwc_sh SH261994 -11.8000 67.3000 45 0 -11.7000 67.5000 3 45 984 3.50000 3.50000 -11.8000 67.3000 TC 45 10 238
1994086S08092 1994 25 SI MM ODILLE 1994-04-08 03:00:00 TS -12.0358 66.9308 main 1336 1282 P____P______P_ SH261994 -11.9999 66.8999 47 0 -12.1076 66.9926 3 45 984 -11.9999 66.8999 TC 47 10 238
1994086S08092 1994 25 SI MM ODILLE 1994-04-08 06:00:00 TS -12.3000 66.5000 45 984 reunion main 1282 1235 O____O______O_ jtwc_sh SH261994 -12.2000 66.5000 50 0 -12.5000 66.5000 3 45 984 3.50000 3.50000 -12.2000 66.5000 TC 50 9 238
1994086S08092 1994 25 SI MM ODILLE 1994-04-08 09:00:00 TS -12.5382 66.1165 main 1235 1188 P____P______P_ SH261994 -12.3999 66.0999 50 0 -12.8147 66.1497 3 47 981 -12.3999 66.0999 TC 50 9 238
1994086S08092 1994 25 SI MM ODILLE 1994-04-08 12:00:00 TS -12.7667 65.7333 50 978 reunion main 1180 1134 O____O______O_ jtwc_sh SH261994 -12.6000 65.7000 50 0 -13.1000 65.8000 3 50 978 4.00000 4.00000 -12.6000 65.7000 TC 50 9 240
1994086S08092 1994 25 SI MM ODILLE 1994-04-08 15:00:00 TS -13.0000 65.3025 main 1134 1088 P____P______P_ SH261994 -12.7999 65.2999 52 0 -13.4001 65.3075 3 50 978 -12.7999 65.2999 TC 52 10 241
1994086S08092 1994 25 SI MM ODILLE 1994-04-08 18:00:00 TS -13.2333 64.8667 50 978 reunion main 1088 1033 O____O______O_ jtwc_sh SH261994 -13.0000 64.9000 55 0 -13.7000 64.8000 3 50 978 4.00000 4.00000 -13.0000 64.9000 TC 55 9 240
1994086S08092 1994 25 SI MM ODILLE 1994-04-08 21:00:00 TS -13.4766 64.4641 main 1033 988 P____P______P_ SH261994 -13.1999 64.4999 55 0 -14.0298 64.3925 3 52 976 -13.1999 64.4999 TC 55 9 239
1994086S08092 1994 25 SI MM ODILLE 1994-04-09 00:00:00 TS -13.7000 64.0667 55 974 reunion main 988 942 O____O______O_ jtwc_sh SH261994 -13.4000 64.1000 55 0 -14.3000 64.0000 3 55 974 4.00000 4.00000 -13.4000 64.1000 TC 55 9 243
1994086S08092 1994 25 SI MM ODILLE 1994-04-09 03:00:00 TS -13.8841 63.6474 main 935 905 P____P______P_ SH261994 -13.6075 63.6925 57 0 -14.4375 63.5574 3 55 974 -13.6075 63.6925 TC 57 9 248
1994086S08092 1994 25 SI MM ODILLE 1994-04-09 06:00:00 TS -14.0333 63.2333 55 974 reunion main 898 854 O____O______O_ jtwc_sh SH261994 -13.8000 63.3000 60 0 -14.5000 63.1000 3 55 974 4.00000 4.00000 -13.8000 63.3000 TC 60 8 251
1994086S08092 1994 25 SI MM ODILLE 1994-04-09 09:00:00 TS -14.1650 62.8250 main 854 825 P____P______P_ SH261994 -13.9649 62.9350 60 0 -14.5651 62.6050 3 55 974 -13.9649 62.9350 TC 60 8 253
1994086S08092 1994 25 SI MM ODILLE 1994-04-09 12:00:00 TS -14.2667 62.4667 55 974 reunion main 825 805 O____O______O_ jtwc_sh SH261994 -14.1000 62.6000 60 0 -14.6000 62.2000 3 55 974 4.00000 4.00000 -14.1000 62.6000 TC 60 6 254
1994086S08092 1994 25 SI MM ODILLE 1994-04-09 15:00:00 TS -14.3382 62.1941 main 805 784 P____P______P_ SH261994 -14.2075 62.2849 62 0 -14.5998 62.0124 3 57 971 -14.2075 62.2849 TC 62 5 255
1994086S08092 1994 25 SI MM ODILLE 1994-04-09 18:00:00 TS -14.4000 61.9667 60 968 reunion main 784 756 O____O______O_ jtwc_sh SH261994 -14.3000 62.0000 65 1 -14.6000 61.9000 3 60 968 4.50000 4.50000 -14.3000 62.0000 TC 65 5 252
1994086S08092 1994 25 SI MM ODILLE 1994-04-09 21:00:00 TS -14.4808 61.7283 main 756 735 P____P______P_ SH261994 -14.4000 61.7350 65 1 -14.6425 61.7150 3 62 965 -14.4000 61.7350 TC 65 5 250
1994086S08092 1994 25 SI MM ODILLE 1994-04-10 00:00:00 TS -14.5667 61.5000 65 962 reunion main 735 724 O____O______O_ jtwc_sh SH261994 -14.5000 61.5000 65 1 -14.7000 61.5000 4 65 962 4.50000 4.50000 -14.5000 61.5000 TC 65 5 249
1994086S08092 1994 25 SI MM ODILLE 1994-04-10 03:00:00 TS -14.6475 61.2758 main 724 703 P____P______P_ SH261994 -14.6000 61.2925 67 1 -14.7425 61.2425 4 67 958 -14.6000 61.2925 TC 67 5 248
1994086S08092 1994 25 SI MM ODILLE 1994-04-10 06:00:00 TS -14.7333 61.0667 70 955 reunion main 703 683 O____O______O_ jtwc_sh SH261994 -14.7000 61.1000 70 1 -14.8000 61.0000 4 70 955 5.00000 5.00000 -14.7000 61.1000 TC 70 4 245
1994086S08092 1994 25 SI MM ODILLE 1994-04-10 09:00:00 TS -14.8333 60.8708 main 683 663 P____P______P_ SH261994 -14.8000 60.8925 75 1 -14.9000 60.8275 4 72 952 -14.8000 60.8925 TC 75 4 241
1994086S08092 1994 25 SI MM ODILLE 1994-04-10 12:00:00 TS -14.9333 60.7000 75 950 reunion main 663 648 O____O______O_ jtwc_sh SH261994 -14.9000 60.7000 80 1 -15.0000 60.7000 4 75 950 5.00000 5.00000 -14.9000 60.7000 TC 80 4 239
1994086S08092 1994 25 SI MM ODILLE 1994-04-10 15:00:00 TS -15.0116 60.5591 main 648 628 P____P______P_ SH261994 -14.9925 60.5425 85 2 -15.0500 60.5925 4 77 947 -14.9925 60.5425 TC 85 3 237
1994086S08092 1994 25 SI MM ODILLE 1994-04-10 18:00:00 TS -15.1000 60.4333 80 945 reunion main 628 613 O____O______O_ jtwc_sh SH261994 -15.1000 60.4000 90 2 -15.1000 60.5000 4 80 945 5.50000 5.50000 -15.1000 60.4000 TC 90 3 233
1994086S08092 1994 25 SI MM ODILLE 1994-04-10 21:00:00 TS -15.2083 60.2925 main 613 588 P____P______P_ SH261994 -15.2275 60.2350 95 2 -15.1700 60.4074 4 80 945 -15.2275 60.2350 TC 95 4 224
1994086S08092 1994 25 SI MM ODILLE 1994-04-11 00:00:00 TS -15.3667 60.1667 80 945 reunion main 588 563 O____O______O_ jtwc_sh SH261994 -15.4000 60.1000 100 3 -15.3000 60.3000 4 80 945 5.00000 5.50000 -15.4000 60.1000 TC 100 4 210
1994086S08092 1994 25 SI MM ODILLE 1994-04-11 03:00:00 TS -15.5867 60.0609 main 563 539 P____P______P_ SH261994 -15.6275 60.0275 102 3 -15.5050 60.1276 4 82 940 -15.6275 60.0275 TC 102 5 198
1994086S08092 1994 25 SI MM ODILLE 1994-04-11 06:00:00 TS -15.8667 60.0000 85 935 reunion main 529 499 O____O______O_ jtwc_sh SH261994 -15.9000 60.0000 105 3 -15.8000 60.0000 4 85 935 5.50000 5.50000 -15.9000 60.0000 TC 105 6 187
1994086S08092 1994 25 SI MM ODILLE 1994-04-11 09:00:00 TS -16.1825 59.9842 main 499 470 P____P______P_ SH261994 -16.1850 59.9776 105 3 -16.1775 59.9975 4 87 932 -16.1850 59.9776 TC 105 7 176
1994086S08092 1994 25 SI MM ODILLE 1994-04-11 12:00:00 TS -16.5333 60.0333 90 930 reunion main 470 438 O____O______O_ jtwc_sh SH261994 -16.5000 60.0000 105 3 -16.6000 60.1000 4 90 930 6.00000 6.00000 -16.5000 60.0000 TC 105 7 169
1994086S08092 1994 25 SI MM ODILLE 1994-04-11 15:00:00 TS -16.8850 60.1318 main 438 417 P____P______P_ SH261994 -16.8275 60.0626 102 3 -17.0000 60.2700 4 92 927 -16.8275 60.0626 TC 102 8 161
1994086S08092 1994 25 SI MM ODILLE 1994-04-11 18:00:00 TS -17.2667 60.3000 95 925 reunion main 416 398 O____O______O_ jtwc_sh SH261994 -17.2000 60.2000 100 3 -17.4000 60.5000 4 95 925 6.00000 6.00000 -17.2000 60.2000 TC 100 9 155
1994086S08092 1994 25 SI MM ODILLE 1994-04-11 21:00:00 TS -17.6775 60.5201 main 398 386 P____P______P_ SH261994 -17.6275 60.4126 100 3 -17.7775 60.7352 4 95 925 -17.6275 60.4126 TC 100 10 151
1994086S08092 1994 25 SI MM ODILLE 1994-04-12 00:00:00 TS -18.1333 60.8000 95 925 reunion main 395 388 O____O______O_ jtwc_sh SH261994 -18.1000 60.7000 100 3 -18.2000 61.0000 4 95 925 5.50000 6.00000 -18.1000 60.7000 TC 100 11 149
1994086S08092 1994 25 SI MM ODILLE 1994-04-12 03:00:00 TS -18.6250 61.1210 main 394 389 P____P______P_ SH261994 -18.5775 61.0351 97 3 -18.7200 61.2926 4 92 927 -18.5775 61.0351 TC 97 12 149
1994086S08092 1994 25 SI MM ODILLE 1994-04-12 06:00:00 TS -19.1667 61.4667 90 930 reunion main 406 402 O____O______O_ jtwc_sh SH261994 -19.1000 61.4000 95 2 -19.3000 61.6000 4 90 930 5.00000 6.00000 -19.1000 61.4000 TC 95 13 150
1994086S08092 1994 25 SI MM ODILLE 1994-04-12 09:00:00 TS -19.7491 61.8027 main 423 421 P____P______P_ SH261994 -19.6775 61.7576 95 2 -19.8924 61.8928 4 85 937 -19.6775 61.7576 TC 95 14 152
1994086S08092 1994 25 SI MM ODILLE 1994-04-12 12:00:00 TS -20.3667 62.1333 80 945 reunion main 448 448 O____O______O_ jtwc_sh SH261994 -20.3000 62.1000 95 2 -20.5000 62.2000 4 80 945 4.50000 5.50000 -20.3000 62.1000 TC 95 14 154
1994086S08092 1994 25 SI MM ODILLE 1994-04-12 15:00:00 TS -20.9825 62.4553 main 495 495 P____P______P_ SH261994 -20.9274 62.4079 92 2 -21.0925 62.5502 4 75 950 -20.9274 62.4079 TC 92 14 155
1994086S08092 1994 25 SI MM ODILLE 1994-04-12 18:00:00 TS -21.6333 62.7667 70 955 reunion main 539 539 O____O______O_ jtwc_sh SH261994 -21.6000 62.7000 90 2 -21.7000 62.9000 4 70 955 4.00000 5.00000 -21.6000 62.7000 TC 90 15 158
1994086S08092 1994 25 SI MM ODILLE 1994-04-12 21:00:00 TS -22.3398 63.0547 main 592 592 P____P______P_ SH261994 -22.3348 62.9781 87 2 -22.3499 63.2078 4 65 961 -22.3348 62.9781 TC 87 15 159
1994086S08092 1994 25 SI MM ODILLE 1994-04-13 00:00:00 TS -23.0667 63.3667 60 968 reunion main 656 656 O____O______O_ jtwc_sh SH261994 -23.1000 63.3000 85 2 -23.0000 63.5000 3 60 968 3.50000 4.50000 -23.1000 63.3000 TC 85 16 157
1994086S08092 1994 25 SI MM ODILLE 1994-04-13 03:00:00 TS -23.7664 63.7274 main 719 719 P____P______P_ SH261994 -23.8422 63.6983 80 1 -23.6148 63.7855 3 55 973 -23.8422 63.6983 TC 80 16 152
1994086S08092 1994 25 SI MM ODILLE 1994-04-13 06:00:00 TS -24.4667 64.1667 50 978 reunion main 803 803 O____O______O_ jtwc_sh SH261994 -24.6000 64.2000 75 1 -24.2000 64.1000 3 50 978 3.00000 4.00000 -24.6000 64.2000 TC 75 17 149
1994086S08092 1994 25 SI MM ODILLE 1994-04-13 09:00:00 TS -25.1905 64.6790 main 888 888 P____P______P_ SH261994 -25.3995 64.7833 70 1 -24.7724 64.4702 3 46 982 -25.3995 64.7833 TC 70 18 144
1994086S08092 1994 25 SI MM ODILLE 1994-04-13 12:00:00 TS -25.9000 65.3000 42 986 reunion main 982 982 O____O______O_ jtwc_sh SH261994 -26.2000 65.5000 65 1 -25.3000 64.9000 3 42 986 2.50000 3.50000 -26.2000 65.5000 TC 65 18 138
1994086S08092 1994 25 SI MM ODILLE 1994-04-13 15:00:00 TS -26.5624 66.0298 main 1085 1085 P____P______P_ SH261994 -26.9574 66.3558 60 0 -25.7724 65.3779 3 38 989 -26.9574 66.3558 TC 60 19 133
1994086S08092 1994 25 SI MM ODILLE 1994-04-13 18:00:00 TS -27.2000 66.8333 35 992 reunion main 1189 1189 O____O______O_ jtwc_sh SH261994 -27.7000 67.3000 55 0 -26.2000 65.9000 3 35 992 2.00000 3.00000 -27.7000 67.3000 TC 55 19 132
1994086S08092 1994 25 SI MM ODILLE 1994-04-13 21:00:00 TS -27.8349 67.6089 main 1292 1292 P____P______P_ SH261994 -28.4567 68.2288 50 0 -26.5912 66.3691 3 32 993 -28.4567 68.2288 TC 50 17 130
1994086S08092 1994 25 SI MM ODILLE 1994-04-14 00:00:00 TS -28.3200 68.3200 30 995 reunion main 1380 1380 O____O______O_ jtwc_sh SH261994 -29.2000 69.2000 45 0 -27.0000 67.0000 2 30 995 1.50000 2.50000 -29.2000 69.2000 TC 45 16 124
1994086S08092 1994 25 SI MM ODILLE 1994-04-14 03:00:00 TS -28.7057 69.0797 main 1470 1470 P____P______P_ SH261994 -29.9119 70.2295 42 0 -27.4995 67.9299 2 27 997 -29.9119 70.2295 TC 42 14 112
1994086S08092 1994 25 SI MM ODILLE 1994-04-14 06:00:00 TS -28.8667 69.8333 25 1000 reunion main 1538 1538 O____O______O_ jtwc_sh SH261994 -30.6000 71.3000 40 0 -28.0000 69.1000 2 25 1000 1.50000 2.00000 -30.6000 71.3000 TC 40 12 80
1994086S08092 1994 25 SI MM ODILLE 1994-04-14 09:00:00 TS -28.4903 70.4181 main 1562 1562 _____P________ SH261994 -1 -28.4903 70.4181 2 TC 17 88
1994086S08092 1994 25 SI MM ODILLE 1994-04-14 12:00:00 ET -28.8000 71.8000 reunion main 1697 1697 _____O________ -1 -28.8000 71.8000 5 9.90000 23 97
1994086S08092 1994 25 SI MM ODILLE 1994-04-14 15:00:00 ET -28.7811 73.0748 main 1808 1808 _____P________ -1 -28.7811 73.0748 5 22 85
1994086S08092 1994 25 SI MM ODILLE 1994-04-14 18:00:00 ET -28.6000 74.3000 reunion main 1903 1903 _____O________ -1 -28.6000 74.3000 5 9.90000 22 81
1994086S08092 1994 25 SI MM ODILLE 1994-04-14 21:00:00 ET -28.4357 75.5981 main 2011 2011 _____P________ -1 -28.4357 75.5981 5 21 82
1994086S08092 1994 25 SI MM ODILLE 1994-04-15 00:00:00 ET -28.3000 76.7000 reunion main 2107 2107 _____O________ -1 -28.3000 76.7000 5 9.90000 16 83
1994086S08092 1994 25 SI MM ODILLE 1994-04-15 03:00:00 ET -28.2534 77.4120 main 2171 2171 _____P________ -1 -28.2534 77.4120 5 11 90
1994086S08092 1994 25 SI MM ODILLE 1994-04-15 06:00:00 ET -28.3000 77.9000 reunion main 2218 2218 _____O________ -1 -28.3000 77.9000 5 9.90000 8 101
1994086S08092 1994 25 SI MM ODILLE 1994-04-15 09:00:00 ET -28.4194 78.3501 main 2268 2268 _____P________ -1 -28.4194 78.3501 5 8 111
1994086S08092 1994 25 SI MM ODILLE 1994-04-15 12:00:00 ET -28.6000 78.8000 reunion main 2312 2312 _____O________ -1 -28.6000 78.8000 5 9.90000 9 111
1994086S08092 1994 25 SI MM ODILLE 1994-04-15 15:00:00 ET -28.7546 79.3485 main 2365 2365 _____P________ -1 -28.7546 79.3485 5 11 111
1994086S08092 1994 25 SI MM ODILLE 1994-04-15 18:00:00 ET -29.0000 80.0000 reunion main 2377 2356 _____O________ -1 -29.0000 80.0000 5 9.90000 14 118
1994086S08092 1994 25 SI MM ODILLE 1994-04-15 21:00:00 ET -29.4048 80.7551 main 2359 2332 _____P________ -1 -29.4048 80.7551 5 17 123
1994086S08092 1994 25 SI MM ODILLE 1994-04-16 00:00:00 ET -29.9000 81.6000 reunion main 2332 2308 _____O________ -1 -29.9000 81.6000 5 9.90000 18 123
1994086S08092 1994 25 SI MM ODILLE 1994-04-16 03:00:00 ET -30.3998 82.4927 main 2312 2295 _____P________ -1 -30.3998 82.4927 5 18 123
1994086S08092 1994 25 SI MM ODILLE 1994-04-16 06:00:00 ET -30.9000 83.4000 reunion main 2295 2283 _____O________ -1 -30.9000 83.4000 5 9.90000 18 123
1994086S08092 1994 25 SI MM ODILLE 1994-04-16 09:00:00 ET -31.3716 84.2508 main 2281 2271 _____P________ -1 -31.3716 84.2508 5 17 122
1994086S08092 1994 25 SI MM ODILLE 1994-04-16 12:00:00 ET -31.8000 85.1000 reunion main 2276 2273 _____O________ -1 -31.8000 85.1000 5 9.90000 17 119
1994086S08092 1994 25 SI MM ODILLE 1994-04-16 15:00:00 ET -32.1951 86.0224 main 2278 2278 _____P________ -1 -32.1951 86.0224 5 17 115
1994086S08092 1994 25 SI MM ODILLE 1994-04-16 18:00:00 ET -32.5000 86.9000 reunion main 2292 2292 _____O________ -1 -32.5000 86.9000 5 9.90000 15 110
1994086S08092 1994 25 SI MM ODILLE 1994-04-16 21:00:00 ET -32.6852 87.6427 main 2308 2308 _____P________ -1 -32.6852 87.6427 5 12 104
1994086S08092 1994 25 SI MM ODILLE 1994-04-17 00:00:00 ET -32.8000 88.3000 reunion main 2335 _____O________ -1 -32.8000 88.3000 5 9.90000 11 102

About IBTrACS Database

This database is a web-friendly format of International Best Track Archive for Climate Stewardship (IBTrACS), a global best track data archive curated by NOAA dating back to 1842.

Updated: 2021-12-03